TimeHST,TemperatureF,Dew PointF,Humidity,Sea Level PressureIn,VisibilityMPH,Wind Direction,Wind SpeedMPH,Gust SpeedMPH,PrecipitationIn,Events,Conditions,WindDirDegrees,DateUTC
12:57 AM,73.4,71.1,92,29.91,10.0,ENE,5.8,-,N/A,,Overcast,70,2013-09-14 10:57:00
1:57 AM,-9999,-9999,N/A,29.90,10.0,East,8.1,16.1,N/A,,Mostly Cloudy,80,2013-09-14 11:57:00
2:57 AM,73.4,69.1,86,29.88,10.0,East,8.1,-,N/A,,Scattered Clouds,80,2013-09-14 12:57:00
3:57 AM,73.4,69.1,86,29.87,10.0,ENE,6.9,-,N/A,,Scattered Clouds,60,2013-09-14 13:57:00
4:57 AM,73.4,70.0,89,29.88,10.0,ENE,6.9,-,N/A,,Scattered Clouds,60,2013-09-14 14:57:00
5:57 AM,73.4,69.1,86,29.89,10.0,NE,8.1,-,N/A,,Scattered Clouds,50,2013-09-14 15:57:00
6:57 AM,75.2,70.0,84,29.90,10.0,ENE,4.6,-,N/A,,Scattered Clouds,60,2013-09-14 16:57:00
7:57 AM,80.2,71.1,73,29.92,10.0,NE,5.8,-,N/A,,Partly Cloudy,50,2013-09-14 17:57:00
8:57 AM,82.4,72.0,71,29.93,10.0,NE,8.1,-,N/A,,Mostly Cloudy,40,2013-09-14 18:57:00
9:57 AM,82.4,72.0,71,29.93,10.0,ENE,9.2,-,N/A,,Mostly Cloudy,60,2013-09-14 19:57:00
10:57 AM,82.4,70.0,66,29.93,10.0,NE,9.2,-,N/A,,Mostly Cloudy,50,2013-09-14 20:57:00
11:57 AM,82.4,71.1,68,29.91,10.0,ENE,9.2,-,N/A,,Mostly Cloudy,70,2013-09-14 21:57:00
12:57 PM,84.2,71.1,65,29.89,10.0,ENE,9.2,-,N/A,,Scattered Clouds,60,2013-09-14 22:57:00
1:57 PM,83.8,71.1,65,29.88,10.0,ENE,6.9,-,N/A,,Scattered Clouds,60,2013-09-14 23:57:00
2:57 PM,83.8,72.0,67,29.87,10.0,ENE,9.2,-,N/A,,Scattered Clouds,70,2013-09-15 00:57:00
3:57 PM,84.7,71.1,63,29.88,10.0,NE,9.2,-,N/A,,Scattered Clouds,50,2013-09-15 01:57:00
4:57 PM,81.7,72.0,72,29.89,10.0,NE,5.8,-,N/A,,Scattered Clouds,40,2013-09-15 02:57:00
5:57 PM,80.2,71.1,73,29.90,10.0,NNE,5.8,-,N/A,,Scattered Clouds,30,2013-09-15 03:57:00
6:57 PM,79.0,71.1,77,29.91,10.0,NE,8.1,-,N/A,,Scattered Clouds,50,2013-09-15 04:57:00
7:57 PM,78.4,72.0,80,29.93,10.0,ENE,3.5,-,N/A,,Mostly Cloudy,60,2013-09-15 05:57:00
8:57 PM,76.6,72.0,85,29.94,10.0,NE,4.6,-,N/A,,Mostly Cloudy,40,2013-09-15 06:57:00
9:22 PM,77.0,73.4,89,29.96,6.2,ENE,4.6,-,N/A,,Mostly Cloudy,60,2013-09-15 07:22:00
9:31 PM,77.0,73.4,89,29.96,6.2,NE,5.8,-,N/A,,Scattered Clouds,50,2013-09-15 07:31:00
9:57 PM,76.6,73.0,89,29.94,10.0,NE,3.5,-,N/A,,Scattered Clouds,50,2013-09-15 07:57:00
10:10 PM,77.0,71.6,83,29.96,6.2,NNE,4.6,-,N/A,,Mostly Cloudy,30,2013-09-15 08:10:00
10:48 PM,77.0,71.6,83,29.95,6.2,ENE,4.6,-,N/A,,Partly Cloudy,60,2013-09-15 08:48:00
10:57 PM,76.8,72.0,85,29.94,10.0,NE,5.8,-,N/A,,Scattered Clouds,40,2013-09-15 08:57:00
11:57 PM,76.8,72.0,85,29.93,10.0,NNE,5.8,-,N/A,,Scattered Clouds,30,2013-09-15 09:57:00